SKCL/CLO METAR and TAF weather

Enter ICAO airport designator
Station Type Date Time Source
SKCL METAR 2020/07/08 23:00 UTC NOAA

SKCL 082300Z 31006KT 9999 SCT030 SCT120 26/18 A2990 NOSIG


Station Type Date Time Source
SKCL Decoded METAR 2020/07/08 23:00 UTC NOAA

Cali / Alfonso Bonillaaragon, Colombia (SKCL) 03-33N 076-23W 969M
Jul 08, 2020 - 07:00 PM EDT / 2020.07.08 2300 UTC
Wind: from the NW (310 degrees) at 7 MPH (6 KT):0
Visibility: greater than 7 mile(s):0
Sky conditions: partly cloudy
Temperature: 78 F (26 C)
Dew Point: 64 F (18 C)
Relative Humidity: 61%
Pressure (altimeter): 29.9 in. Hg (1012 hPa)
ob: SKCL 082300Z 31006KT 9999 SCT030 SCT120 26/18 A2990 NOSIG
cycle: 23

Station Type Date Time Source
SKCL TAF 2020/07/08 18:45 UTC NOAA

TAF TAF SKCL 081630Z 0818/0918 28008KT 9999 BKN020TCU
TEMPO 0819/0821 8000 VCSH PROB40
TEMPO 0821/0823 7000 VCTS BKN015CB PROB30
TEMPO 0823/0901 6000 TSRA BKN013CB
BECMG 0901/0903 VRB03KT SCT015 BKN090
TEMPO 0904/0906 8000 VCSH
TEMPO 0911/0914 8000 VCFG BKN030 TX31/0819Z TN19/0910Z

Example: see airport list